Time,TemperatureF,DewpointF,PressureIn,WindDirection,WindDirectionDegrees,WindSpeedMPH,WindSpeedGustMPH,Humidity,HourlyPrecipIn,Conditions,Clouds,dailyrainin,SolarRadiationWatts/m^2,SoftwareType,DateUTC
2013-08-26 03:50:00,66.0,49.0,-100.00,SSE,160,3.0,5.0,54,0.00,,,-99.99,0.000000,,2013-08-26 09:50:00,
2013-08-26 04:22:00,66.0,49.0,-100.00,SSE,160,3.0,5.0,54,0.00,,,-99.99,0.000000,,2013-08-26 10:22:00,
2013-08-26 04:32:00,66.0,49.0,-100.00,SSE,160,3.0,5.0,54,0.00,,,-99.99,0.000000,,2013-08-26 10:32:00,
2013-08-26 04:42:00,66.0,49.0,-100.00,SSE,160,3.0,5.0,54,0.00,,,-99.99,0.000000,,2013-08-26 10:42:00,
2013-08-26 05:52:00,67.0,49.0,-100.00,SE,131,4.0,6.0,53,0.00,,,-99.99,0.000000,,2013-08-26 11:52:00,
2013-08-26 07:52:00,65.0,51.0,-100.00,ESE,104,4.0,5.0,60,0.00,,,-99.99,23.000000,,2013-08-26 13:52:00,
2013-08-26 08:50:00,66.0,55.0,-100.00,SSE,165,1.0,3.0,68,0.00,,,-99.99,159.000000,,2013-08-26 14:50:00,
2013-08-26 09:22:00,66.0,55.0,-100.00,SSE,165,1.0,3.0,68,0.00,,,-99.99,159.000000,,2013-08-26 15:22:00,
2013-08-26 09:35:00,66.0,55.0,-100.00,SSE,165,1.0,3.0,68,0.00,,,-99.99,159.000000,,2013-08-26 15:35:00,
2013-08-26 09:47:00,66.0,55.0,-100.00,SSE,165,1.0,3.0,68,0.00,,,-99.99,159.000000,,2013-08-26 15:47:00,
2013-08-26 10:59:00,71.0,56.0,-100.00,East,79,2.0,3.0,59,0.00,,,-99.99,215.000000,,2013-08-26 16:59:00,
2013-08-26 13:50:00,68.0,60.0,-100.00,ESE,115,3.0,4.0,75,0.00,,,-99.99,228.000000,,2013-08-26 19:50:00,
2013-08-26 13:52:00,68.0,58.0,-100.00,SSE,166,5.0,7.0,70,0.00,,,-99.99,258.000000,,2013-08-26 19:52:00,
2013-08-26 14:21:00,68.0,60.0,-100.00,ESE,115,3.0,4.0,75,0.00,,,-99.99,228.000000,,2013-08-26 20:21:00,
2013-08-26 14:32:00,68.0,60.0,-100.00,ESE,115,3.0,4.0,75,0.00,,,-99.99,228.000000,,2013-08-26 20:32:00,
2013-08-26 14:42:00,68.0,60.0,-100.00,ESE,115,3.0,4.0,75,0.00,,,-99.99,228.000000,,2013-08-26 20:42:00,
2013-08-26 18:50:00,71.0,61.0,-100.00,NW,326,3.0,4.0,71,0.00,,,-99.99,103.000000,,2013-08-27 00:50:00,
2013-08-26 18:52:00,72.0,60.0,-100.00,SE,137,1.0,3.0,65,0.00,,,-99.99,97.000000,,2013-08-27 00:52:00,
2013-08-26 19:21:00,71.0,61.0,-100.00,NW,326,3.0,4.0,71,0.00,,,-99.99,103.000000,,2013-08-27 01:21:00,
2013-08-26 19:32:00,71.0,61.0,-100.00,NW,326,3.0,4.0,71,0.00,,,-99.99,103.000000,,2013-08-27 01:32:00,
2013-08-26 19:42:00,71.0,61.0,-100.00,NW,326,3.0,4.0,71,0.00,,,-99.99,103.000000,,2013-08-27 01:42:00,
2013-08-26 22:54:00,67.0,58.0,-100.00,NE,47,3.0,4.0,74,0.00,,,-99.99,0.000000,,2013-08-27 04:54:00,
2013-08-26 23:50:00,64.0,58.0,-100.00,East,96,3.0,3.0,79,0.00,,,-99.99,0.000000,,2013-08-27 05:50:00,